sensor_id;sensor_type;location;lat;lon;timestamp;P1;durP1;ratioP1;P2;durP2;ratioP2
58242;SDS011;50118;53.232;8.252;2023-07-30T00:01:57;10.45;;;7.75;;
58242;SDS011;50118;53.232;8.252;2023-07-30T00:04:24;8.27;;;6.78;;
58242;SDS011;50118;53.232;8.252;2023-07-30T00:06:50;9.02;;;7.88;;
58242;SDS011;50118;53.232;8.252;2023-07-30T00:09:15;9.95;;;8.30;;
58242;SDS011;50118;53.232;8.252;2023-07-30T00:11:41;11.50;;;8.40;;
58242;SDS011;50118;53.232;8.252;2023-07-30T00:14:06;10.32;;;8.30;;
58242;SDS011;50118;53.232;8.252;2023-07-30T00:16:32;11.50;;;8.77;;
58242;SDS011;50118;53.232;8.252;2023-07-30T00:18:57;9.18;;;8.13;;
58242;SDS011;50118;53.232;8.252;2023-07-30T00:21:23;9.63;;;8.38;;
58242;SDS011;50118;53.232;8.252;2023-07-30T00:23:48;10.00;;;8.23;;
58242;SDS011;50118;53.232;8.252;2023-07-30T00:26:14;9.77;;;8.20;;
58242;SDS011;50118;53.232;8.252;2023-07-30T00:28:39;11.18;;;8.70;;
58242;SDS011;50118;53.232;8.252;2023-07-30T00:31:05;10.18;;;8.05;;
58242;SDS011;50118;53.232;8.252;2023-07-30T00:33:31;11.10;;;8.68;;
58242;SDS011;50118;53.232;8.252;2023-07-30T00:35:56;12.15;;;9.82;;
58242;SDS011;50118;53.232;8.252;2023-07-30T00:38:22;11.85;;;9.95;;
58242;SDS011;50118;53.232;8.252;2023-07-30T00:40:47;13.05;;;10.65;;
58242;SDS011;50118;53.232;8.252;2023-07-30T00:43:13;12.02;;;9.82;;
58242;SDS011;50118;53.232;8.252;2023-07-30T00:45:40;12.82;;;10.02;;
58242;SDS011;50118;53.232;8.252;2023-07-30T00:48:07;11.68;;;9.52;;
58242;SDS011;50118;53.232;8.252;2023-07-30T00:50:34;12.60;;;9.43;;
58242;SDS011;50118;53.232;8.252;2023-07-30T00:52:59;14.35;;;10.82;;
58242;SDS011;50118;53.232;8.252;2023-07-30T00:55:25;14.00;;;10.63;;
58242;SDS011;50118;53.232;8.252;2023-07-30T00:57:51;14.90;;;10.52;;
58242;SDS011;50118;53.232;8.252;2023-07-30T01:00:17;14.45;;;10.65;;
58242;SDS011;50118;53.232;8.252;2023-07-30T01:02:43;14.27;;;11.15;;
58242;SDS011;50118;53.232;8.252;2023-07-30T01:05:09;14.38;;;10.48;;
58242;SDS011;50118;53.232;8.252;2023-07-30T01:07:34;14.00;;;10.60;;
58242;SDS011;50118;53.232;8.252;2023-07-30T01:10:00;12.55;;;9.52;;
58242;SDS011;50118;53.232;8.252;2023-07-30T01:12:26;13.32;;;9.75;;
58242;SDS011;50118;53.232;8.252;2023-07-30T01:14:58;15.32;;;10.32;;
58242;SDS011;50118;53.232;8.252;2023-07-30T01:17:25;15.05;;;11.20;;
58242;SDS011;50118;53.232;8.252;2023-07-30T01:19:52;14.77;;;10.60;;
58242;SDS011;50118;53.232;8.252;2023-07-30T01:22:20;16.40;;;10.93;;
58242;SDS011;50118;53.232;8.252;2023-07-30T01:24:46;16.33;;;10.82;;
58242;SDS011;50118;53.232;8.252;2023-07-30T01:27:14;13.27;;;9.73;;
58242;SDS011;50118;53.232;8.252;2023-07-30T01:29:53;12.35;;;8.68;;
58242;SDS011;50118;53.232;8.252;2023-07-30T01:32:25;12.50;;;9.80;;
58242;SDS011;50118;53.232;8.252;2023-07-30T01:34:54;14.18;;;10.45;;
58242;SDS011;50118;53.232;8.252;2023-07-30T01:37:22;14.32;;;10.02;;
58242;SDS011;50118;53.232;8.252;2023-07-30T01:39:48;12.30;;;9.13;;
58242;SDS011;50118;53.232;8.252;2023-07-30T01:42:15;12.65;;;9.73;;
58242;SDS011;50118;53.232;8.252;2023-07-30T01:44:41;13.65;;;9.50;;
58242;SDS011;50118;53.232;8.252;2023-07-30T01:47:06;14.07;;;9.50;;
58242;SDS011;50118;53.232;8.252;2023-07-30T01:49:33;12.18;;;9.18;;
58242;SDS011;50118;53.232;8.252;2023-07-30T01:51:58;12.93;;;8.90;;
58242;SDS011;50118;53.232;8.252;2023-07-30T01:54:24;14.90;;;9.82;;
58242;SDS011;50118;53.232;8.252;2023-07-30T01:56:50;13.32;;;9.38;;
58242;SDS011;50118;53.232;8.252;2023-07-30T01:59:16;13.60;;;9.68;;
58242;SDS011;50118;53.232;8.252;2023-07-30T02:01:41;14.98;;;9.40;;
58242;SDS011;50118;53.232;8.252;2023-07-30T02:04:07;13.30;;;8.70;;
58242;SDS011;50118;53.232;8.252;2023-07-30T02:06:32;12.68;;;9.90;;
58242;SDS011;50118;53.232;8.252;2023-07-30T02:08:58;12.60;;;8.80;;
58242;SDS011;50118;53.232;8.252;2023-07-30T02:11:23;14.93;;;9.25;;
58242;SDS011;50118;53.232;8.252;2023-07-30T02:13:49;13.27;;;8.60;;
58242;SDS011;50118;53.232;8.252;2023-07-30T02:16:14;11.93;;;8.35;;
58242;SDS011;50118;53.232;8.252;2023-07-30T02:18:40;15.35;;;8.82;;
58242;SDS011;50118;53.232;8.252;2023-07-30T02:21:05;12.20;;;8.57;;
58242;SDS011;50118;53.232;8.252;2023-07-30T02:23:30;14.25;;;8.60;;
58242;SDS011;50118;53.232;8.252;2023-07-30T02:25:56;15.60;;;8.80;;
58242;SDS011;50118;53.232;8.252;2023-07-30T02:28:21;13.82;;;8.25;;
58242;SDS011;50118;53.232;8.252;2023-07-30T02:30:46;12.75;;;8.20;;
58242;SDS011;50118;53.232;8.252;2023-07-30T02:33:12;14.93;;;8.20;;
58242;SDS011;50118;53.232;8.252;2023-07-30T02:35:37;12.23;;;8.43;;
58242;SDS011;50118;53.232;8.252;2023-07-30T02:38:03;12.27;;;8.48;;
58242;SDS011;50118;53.232;8.252;2023-07-30T02:40:28;14.25;;;8.48;;
58242;SDS011;50118;53.232;8.252;2023-07-30T02:42:54;14.95;;;9.10;;
58242;SDS011;50118;53.232;8.252;2023-07-30T02:45:19;12.63;;;8.15;;
58242;SDS011;50118;53.232;8.252;2023-07-30T02:47:44;13.77;;;8.60;;
58242;SDS011;50118;53.232;8.252;2023-07-30T02:50:10;18.30;;;9.35;;
58242;SDS011;50118;53.232;8.252;2023-07-30T02:52:36;14.50;;;9.55;;
58242;SDS011;50118;53.232;8.252;2023-07-30T02:55:01;13.93;;;8.48;;
58242;SDS011;50118;53.232;8.252;2023-07-30T02:57:27;15.23;;;9.43;;
58242;SDS011;50118;53.232;8.252;2023-07-30T02:59:52;13.18;;;8.85;;
58242;SDS011;50118;53.232;8.252;2023-07-30T03:02:17;17.48;;;9.82;;
58242;SDS011;50118;53.232;8.252;2023-07-30T03:04:43;16.92;;;9.35;;
58242;SDS011;50118;53.232;8.252;2023-07-30T03:07:09;14.52;;;9.27;;
58242;SDS011;50118;53.232;8.252;2023-07-30T03:09:34;15.70;;;9.90;;
58242;SDS011;50118;53.232;8.252;2023-07-30T03:12:00;15.05;;;9.65;;
58242;SDS011;50118;53.232;8.252;2023-07-30T03:14:25;13.30;;;9.20;;
58242;SDS011;50118;53.232;8.252;2023-07-30T03:16:51;17.45;;;10.27;;
58242;SDS011;50118;53.232;8.252;2023-07-30T03:19:16;16.08;;;9.43;;
58242;SDS011;50118;53.232;8.252;2023-07-30T03:21:41;12.95;;;8.80;;
58242;SDS011;50118;53.232;8.252;2023-07-30T03:24:07;13.27;;;9.18;;
58242;SDS011;50118;53.232;8.252;2023-07-30T03:26:32;16.67;;;9.57;;
58242;SDS011;50118;53.232;8.252;2023-07-30T03:28:58;16.08;;;10.05;;
58242;SDS011;50118;53.232;8.252;2023-07-30T03:31:24;17.67;;;9.88;;
58242;SDS011;50118;53.232;8.252;2023-07-30T03:33:49;20.00;;;9.98;;
58242;SDS011;50118;53.232;8.252;2023-07-30T03:36:15;16.17;;;9.35;;
58242;SDS011;50118;53.232;8.252;2023-07-30T03:38:41;16.15;;;9.90;;
58242;SDS011;50118;53.232;8.252;2023-07-30T03:41:07;15.27;;;9.30;;
58242;SDS011;50118;53.232;8.252;2023-07-30T03:43:33;15.85;;;9.60;;
58242;SDS011;50118;53.232;8.252;2023-07-30T03:45:59;15.18;;;9.18;;
58242;SDS011;50118;53.232;8.252;2023-07-30T03:48:24;16.83;;;8.98;;
58242;SDS011;50118;53.232;8.252;2023-07-30T03:50:50;18.00;;;8.82;;
58242;SDS011;50118;53.232;8.252;2023-07-30T03:53:15;18.27;;;8.98;;
58242;SDS011;50118;53.232;8.252;2023-07-30T03:55:41;15.73;;;8.25;;
58242;SDS011;50118;53.232;8.252;2023-07-30T03:58:07;17.50;;;8.13;;
58242;SDS011;50118;53.232;8.252;2023-07-30T04:00:33;19.30;;;8.18;;
58242;SDS011;50118;53.232;8.252;2023-07-30T04:02:58;15.32;;;7.82;;
58242;SDS011;50118;53.232;8.252;2023-07-30T04:05:24;16.08;;;8.48;;
58242;SDS011;50118;53.232;8.252;2023-07-30T04:07:49;16.80;;;8.07;;
58242;SDS011;50118;53.232;8.252;2023-07-30T04:10:15;13.23;;;7.30;;
58242;SDS011;50118;53.232;8.252;2023-07-30T04:12:40;16.27;;;7.47;;
58242;SDS011;50118;53.232;8.252;2023-07-30T04:15:06;12.93;;;6.95;;
58242;SDS011;50118;53.232;8.252;2023-07-30T04:17:32;15.38;;;6.63;;
58242;SDS011;50118;53.232;8.252;2023-07-30T04:19:57;13.02;;;6.85;;
58242;SDS011;50118;53.232;8.252;2023-07-30T04:22:23;10.82;;;6.25;;
58242;SDS011;50118;53.232;8.252;2023-07-30T04:24:48;17.67;;;6.55;;
58242;SDS011;50118;53.232;8.252;2023-07-30T04:27:13;15.23;;;5.97;;
58242;SDS011;50118;53.232;8.252;2023-07-30T04:29:39;14.48;;;6.10;;
58242;SDS011;50118;53.232;8.252;2023-07-30T04:32:04;15.13;;;5.78;;
58242;SDS011;50118;53.232;8.252;2023-07-30T04:34:30;12.07;;;5.70;;
58242;SDS011;50118;53.232;8.252;2023-07-30T04:36:55;14.23;;;5.70;;
58242;SDS011;50118;53.232;8.252;2023-07-30T04:39:21;13.07;;;5.45;;
58242;SDS011;50118;53.232;8.252;2023-07-30T04:41:46;11.85;;;5.50;;
58242;SDS011;50118;53.232;8.252;2023-07-30T04:44:12;13.00;;;5.75;;
58242;SDS011;50118;53.232;8.252;2023-07-30T04:46:37;15.77;;;5.68;;
58242;SDS011;50118;53.232;8.252;2023-07-30T04:49:03;15.02;;;5.55;;
58242;SDS011;50118;53.232;8.252;2023-07-30T04:51:29;13.07;;;5.35;;
58242;SDS011;50118;53.232;8.252;2023-07-30T04:53:54;10.10;;;4.53;;
58242;SDS011;50118;53.232;8.252;2023-07-30T04:56:20;10.57;;;5.07;;
58242;SDS011;50118;53.232;8.252;2023-07-30T04:58:45;10.63;;;4.72;;
58242;SDS011;50118;53.232;8.252;2023-07-30T05:01:11;12.73;;;4.75;;
58242;SDS011;50118;53.232;8.252;2023-07-30T05:03:36;14.18;;;4.85;;
58242;SDS011;50118;53.232;8.252;2023-07-30T05:06:02;10.65;;;4.53;;
58242;SDS011;50118;53.232;8.252;2023-07-30T05:08:28;11.45;;;4.55;;
58242;SDS011;50118;53.232;8.252;2023-07-30T05:10:53;10.15;;;4.15;;
58242;SDS011;50118;53.232;8.252;2023-07-30T05:13:19;10.38;;;4.50;;
58242;SDS011;50118;53.232;8.252;2023-07-30T05:15:44;11.75;;;4.22;;
58242;SDS011;50118;53.232;8.252;2023-07-30T05:18:10;11.85;;;4.65;;
58242;SDS011;50118;53.232;8.252;2023-07-30T05:20:35;11.50;;;4.10;;
58242;SDS011;50118;53.232;8.252;2023-07-30T05:23:00;8.75;;;4.30;;
58242;SDS011;50118;53.232;8.252;2023-07-30T05:25:27;10.77;;;3.90;;
58242;SDS011;50118;53.232;8.252;2023-07-30T05:27:53;10.95;;;4.00;;
58242;SDS011;50118;53.232;8.252;2023-07-30T05:30:18;11.88;;;3.60;;
58242;SDS011;50118;53.232;8.252;2023-07-30T05:32:43;9.25;;;3.45;;
58242;SDS011;50118;53.232;8.252;2023-07-30T05:35:09;10.10;;;3.63;;
58242;SDS011;50118;53.232;8.252;2023-07-30T05:37:34;9.10;;;3.60;;
58242;SDS011;50118;53.232;8.252;2023-07-30T05:40:00;9.10;;;3.67;;
58242;SDS011;50118;53.232;8.252;2023-07-30T05:42:25;11.15;;;3.75;;
58242;SDS011;50118;53.232;8.252;2023-07-30T05:44:51;11.43;;;3.90;;
58242;SDS011;50118;53.232;8.252;2023-07-30T05:47:16;11.07;;;3.95;;
58242;SDS011;50118;53.232;8.252;2023-07-30T05:49:42;8.13;;;3.70;;
58242;SDS011;50118;53.232;8.252;2023-07-30T05:52:07;8.07;;;3.75;;
58242;SDS011;50118;53.232;8.252;2023-07-30T05:54:33;7.50;;;3.38;;
58242;SDS011;50118;53.232;8.252;2023-07-30T05:56:58;8.60;;;3.20;;
58242;SDS011;50118;53.232;8.252;2023-07-30T05:59:23;7.72;;;3.10;;
58242;SDS011;50118;53.232;8.252;2023-07-30T06:01:49;9.43;;;3.88;;
58242;SDS011;50118;53.232;8.252;2023-07-30T06:04:14;9.80;;;3.40;;
58242;SDS011;50118;53.232;8.252;2023-07-30T06:06:39;8.95;;;3.13;;
58242;SDS011;50118;53.232;8.252;2023-07-30T06:09:05;10.15;;;3.55;;
58242;SDS011;50118;53.232;8.252;2023-07-30T06:11:31;11.80;;;3.55;;
58242;SDS011;50118;53.232;8.252;2023-07-30T06:13:56;10.30;;;3.70;;
58242;SDS011;50118;53.232;8.252;2023-07-30T06:16:21;7.78;;;3.47;;
58242;SDS011;50118;53.232;8.252;2023-07-30T06:18:47;13.30;;;4.07;;
58242;SDS011;50118;53.232;8.252;2023-07-30T06:21:12;10.85;;;3.63;;
58242;SDS011;50118;53.232;8.252;2023-07-30T06:23:38;9.05;;;3.47;;
58242;SDS011;50118;53.232;8.252;2023-07-30T06:26:03;9.52;;;3.10;;
58242;SDS011;50118;53.232;8.252;2023-07-30T06:28:29;11.05;;;3.90;;
58242;SDS011;50118;53.232;8.252;2023-07-30T06:30:54;12.00;;;3.63;;
58242;SDS011;50118;53.232;8.252;2023-07-30T06:33:19;9.88;;;4.20;;
58242;SDS011;50118;53.232;8.252;2023-07-30T06:35:45;12.10;;;3.92;;
58242;SDS011;50118;53.232;8.252;2023-07-30T06:38:10;7.80;;;3.50;;
58242;SDS011;50118;53.232;8.252;2023-07-30T06:40:36;8.43;;;3.70;;
58242;SDS011;50118;53.232;8.252;2023-07-30T06:43:01;12.60;;;4.25;;
58242;SDS011;50118;53.232;8.252;2023-07-30T06:45:27;9.55;;;4.03;;
58242;SDS011;50118;53.232;8.252;2023-07-30T06:47:53;9.77;;;3.88;;
58242;SDS011;50118;53.232;8.252;2023-07-30T06:50:19;12.52;;;4.15;;
58242;SDS011;50118;53.232;8.252;2023-07-30T06:52:44;12.88;;;4.30;;
58242;SDS011;50118;53.232;8.252;2023-07-30T06:55:10;9.52;;;4.47;;
58242;SDS011;50118;53.232;8.252;2023-07-30T06:57:35;9.60;;;4.55;;
58242;SDS011;50118;53.232;8.252;2023-07-30T07:00:01;11.30;;;3.97;;
58242;SDS011;50118;53.232;8.252;2023-07-30T07:02:28;10.68;;;4.30;;
58242;SDS011;50118;53.232;8.252;2023-07-30T07:04:54;11.05;;;4.07;;
58242;SDS011;50118;53.232;8.252;2023-07-30T07:07:19;10.70;;;4.47;;
58242;SDS011;50118;53.232;8.252;2023-07-30T07:09:45;14.15;;;4.38;;
58242;SDS011;50118;53.232;8.252;2023-07-30T07:12:11;10.95;;;4.30;;
58242;SDS011;50118;53.232;8.252;2023-07-30T07:14:36;12.18;;;4.22;;
58242;SDS011;50118;53.232;8.252;2023-07-30T07:17:02;11.93;;;4.45;;
58242;SDS011;50118;53.232;8.252;2023-07-30T07:19:27;14.40;;;4.47;;
58242;SDS011;50118;53.232;8.252;2023-07-30T07:21:53;10.10;;;3.85;;
58242;SDS011;50118;53.232;8.252;2023-07-30T07:24:19;11.13;;;4.05;;
58242;SDS011;50118;53.232;8.252;2023-07-30T07:26:44;12.88;;;4.38;;
58242;SDS011;50118;53.232;8.252;2023-07-30T07:29:10;8.98;;;3.80;;
58242;SDS011;50118;53.232;8.252;2023-07-30T07:31:35;10.73;;;3.90;;
58242;SDS011;50118;53.232;8.252;2023-07-30T07:34:01;14.10;;;4.18;;
58242;SDS011;50118;53.232;8.252;2023-07-30T07:36:26;10.35;;;3.55;;
58242;SDS011;50118;53.232;8.252;2023-07-30T07:38:52;12.93;;;3.75;;
58242;SDS011;50118;53.232;8.252;2023-07-30T07:41:17;11.73;;;3.55;;
58242;SDS011;50118;53.232;8.252;2023-07-30T07:43:43;11.27;;;3.80;;
58242;SDS011;50118;53.232;8.252;2023-07-30T07:46:09;12.25;;;3.95;;
58242;SDS011;50118;53.232;8.252;2023-07-30T07:48:42;13.68;;;3.40;;
58242;SDS011;50118;53.232;8.252;2023-07-30T07:51:17;8.93;;;3.22;;
58242;SDS011;50118;53.232;8.252;2023-07-30T07:53:42;9.30;;;3.40;;
58242;SDS011;50118;53.232;8.252;2023-07-30T07:56:08;10.98;;;3.40;;
58242;SDS011;50118;53.232;8.252;2023-07-30T07:58:33;11.80;;;4.10;;
58242;SDS011;50118;53.232;8.252;2023-07-30T08:01:00;11.50;;;3.75;;
58242;SDS011;50118;53.232;8.252;2023-07-30T08:03:27;9.38;;;3.67;;
58242;SDS011;50118;53.232;8.252;2023-07-30T08:05:52;12.00;;;3.60;;
58242;SDS011;50118;53.232;8.252;2023-07-30T08:08:18;13.00;;;3.78;;
58242;SDS011;50118;53.232;8.252;2023-07-30T08:10:44;13.40;;;3.50;;
58242;SDS011;50118;53.232;8.252;2023-07-30T08:13:12;11.93;;;3.83;;
58242;SDS011;50118;53.232;8.252;2023-07-30T08:15:38;11.98;;;4.40;;
58242;SDS011;50118;53.232;8.252;2023-07-30T08:18:03;14.77;;;4.43;;
58242;SDS011;50118;53.232;8.252;2023-07-30T08:20:38;14.48;;;4.40;;
58242;SDS011;50118;53.232;8.252;2023-07-30T08:23:04;11.05;;;3.70;;
58242;SDS011;50118;53.232;8.252;2023-07-30T08:25:29;14.43;;;4.20;;
58242;SDS011;50118;53.232;8.252;2023-07-30T08:27:55;14.10;;;4.88;;
58242;SDS011;50118;53.232;8.252;2023-07-30T08:30:20;11.65;;;4.20;;
58242;SDS011;50118;53.232;8.252;2023-07-30T08:32:47;12.43;;;4.10;;
58242;SDS011;50118;53.232;8.252;2023-07-30T08:35:13;14.88;;;4.70;;
58242;SDS011;50118;53.232;8.252;2023-07-30T08:37:38;10.68;;;4.20;;
58242;SDS011;50118;53.232;8.252;2023-07-30T08:40:04;12.75;;;4.20;;
58242;SDS011;50118;53.232;8.252;2023-07-30T08:42:31;13.00;;;4.25;;
58242;SDS011;50118;53.232;8.252;2023-07-30T08:44:57;15.00;;;4.43;;
58242;SDS011;50118;53.232;8.252;2023-07-30T08:47:23;12.45;;;4.63;;
58242;SDS011;50118;53.232;8.252;2023-07-30T08:49:49;17.05;;;5.00;;
58242;SDS011;50118;53.232;8.252;2023-07-30T08:52:14;12.23;;;4.55;;
58242;SDS011;50118;53.232;8.252;2023-07-30T08:54:41;13.40;;;4.55;;
58242;SDS011;50118;53.232;8.252;2023-07-30T08:57:08;13.50;;;4.57;;
58242;SDS011;50118;53.232;8.252;2023-07-30T08:59:42;9.95;;;4.43;;
58242;SDS011;50118;53.232;8.252;2023-07-30T09:02:18;12.43;;;4.40;;
58242;SDS011;50118;53.232;8.252;2023-07-30T09:04:49;11.57;;;4.13;;
58242;SDS011;50118;53.232;8.252;2023-07-30T09:07:18;11.63;;;3.95;;
58242;SDS011;50118;53.232;8.252;2023-07-30T09:09:44;10.55;;;4.20;;
58242;SDS011;50118;53.232;8.252;2023-07-30T09:12:14;11.40;;;4.30;;
58242;SDS011;50118;53.232;8.252;2023-07-30T09:14:40;13.80;;;4.10;;
58242;SDS011;50118;53.232;8.252;2023-07-30T09:17:05;9.85;;;3.80;;
58242;SDS011;50118;53.232;8.252;2023-07-30T09:19:40;12.35;;;4.10;;
58242;SDS011;50118;53.232;8.252;2023-07-30T09:22:05;9.32;;;3.80;;
58242;SDS011;50118;53.232;8.252;2023-07-30T09:24:31;12.13;;;3.80;;
58242;SDS011;50118;53.232;8.252;2023-07-30T09:26:57;13.65;;;4.22;;
58242;SDS011;50118;53.232;8.252;2023-07-30T09:29:27;11.35;;;4.18;;
58242;SDS011;50118;53.232;8.252;2023-07-30T09:31:53;14.20;;;4.10;;
58242;SDS011;50118;53.232;8.252;2023-07-30T09:34:19;9.45;;;3.33;;
58242;SDS011;50118;53.232;8.252;2023-07-30T09:36:46;9.63;;;3.42;;
58242;SDS011;50118;53.232;8.252;2023-07-30T09:39:19;11.65;;;3.42;;
58242;SDS011;50118;53.232;8.252;2023-07-30T09:41:46;9.63;;;3.30;;
58242;SDS011;50118;53.232;8.252;2023-07-30T09:44:12;8.07;;;2.80;;
58242;SDS011;50118;53.232;8.252;2023-07-30T09:46:42;9.35;;;3.10;;
58242;SDS011;50118;53.232;8.252;2023-07-30T09:49:09;11.57;;;3.30;;
58242;SDS011;50118;53.232;8.252;2023-07-30T09:51:35;8.65;;;2.85;;
58242;SDS011;50118;53.232;8.252;2023-07-30T09:54:02;8.65;;;2.83;;
58242;SDS011;50118;53.232;8.252;2023-07-30T09:56:28;8.77;;;2.70;;
58242;SDS011;50118;53.232;8.252;2023-07-30T09:58:54;9.75;;;3.30;;
58242;SDS011;50118;53.232;8.252;2023-07-30T10:01:19;8.80;;;2.97;;
58242;SDS011;50118;53.232;8.252;2023-07-30T10:03:49;6.85;;;2.90;;
58242;SDS011;50118;53.232;8.252;2023-07-30T10:06:14;6.82;;;2.50;;
58242;SDS011;50118;53.232;8.252;2023-07-30T10:08:41;8.40;;;2.88;;
58242;SDS011;50118;53.232;8.252;2023-07-30T10:11:08;7.82;;;2.70;;
58242;SDS011;50118;53.232;8.252;2023-07-30T10:13:36;7.43;;;2.75;;
58242;SDS011;50118;53.232;8.252;2023-07-30T10:16:09;11.27;;;2.88;;
58242;SDS011;50118;53.232;8.252;2023-07-30T10:18:38;7.13;;;2.90;;
58242;SDS011;50118;53.232;8.252;2023-07-30T10:21:09;9.77;;;2.85;;
58242;SDS011;50118;53.232;8.252;2023-07-30T10:23:36;6.35;;;2.35;;
58242;SDS011;50118;53.232;8.252;2023-07-30T10:26:11;7.18;;;2.60;;
58242;SDS011;50118;53.232;8.252;2023-07-30T10:28:37;11.77;;;2.30;;
58242;SDS011;50118;53.232;8.252;2023-07-30T10:31:08;8.10;;;2.67;;
58242;SDS011;50118;53.232;8.252;2023-07-30T10:33:52;9.32;;;3.00;;
58242;SDS011;50118;53.232;8.252;2023-07-30T10:37:03;6.93;;;2.50;;
58242;SDS011;50118;53.232;8.252;2023-07-30T10:39:10;9.65;;;3.10;;
58242;SDS011;50118;53.232;8.252;2023-07-30T10:41:36;6.47;;;2.90;;
58242;SDS011;50118;53.232;8.252;2023-07-30T10:44:02;8.32;;;2.88;;
58242;SDS011;50118;53.232;8.252;2023-07-30T10:46:28;8.13;;;2.85;;
58242;SDS011;50118;53.232;8.252;2023-07-30T10:48:54;8.88;;;3.05;;
58242;SDS011;50118;53.232;8.252;2023-07-30T10:51:20;11.77;;;3.00;;
58242;SDS011;50118;53.232;8.252;2023-07-30T10:53:48;8.93;;;2.80;;
58242;SDS011;50118;53.232;8.252;2023-07-30T10:56:17;9.27;;;2.90;;
58242;SDS011;50118;53.232;8.252;2023-07-30T10:58:51;4.25;;;2.15;;
58242;SDS011;50118;53.232;8.252;2023-07-30T11:01:17;6.82;;;2.28;;
58242;SDS011;50118;53.232;8.252;2023-07-30T11:03:43;7.78;;;2.53;;
58242;SDS011;50118;53.232;8.252;2023-07-30T11:06:08;8.13;;;2.65;;
58242;SDS011;50118;53.232;8.252;2023-07-30T11:08:35;6.40;;;2.30;;
58242;SDS011;50118;53.232;8.252;2023-07-30T11:13:50;6.20;;;2.25;;
58242;SDS011;50118;53.232;8.252;2023-07-30T11:16:16;6.82;;;2.20;;
58242;SDS011;50118;53.232;8.252;2023-07-30T11:18:42;6.57;;;2.30;;
58242;SDS011;50118;53.232;8.252;2023-07-30T11:21:10;5.30;;;2.22;;
58242;SDS011;50118;53.232;8.252;2023-07-30T11:23:37;5.32;;;2.28;;
58242;SDS011;50118;53.232;8.252;2023-07-30T11:26:05;6.32;;;2.35;;
58242;SDS011;50118;53.232;8.252;2023-07-30T11:28:32;5.50;;;2.13;;
58242;SDS011;50118;53.232;8.252;2023-07-30T11:31:02;6.88;;;2.28;;
58242;SDS011;50118;53.232;8.252;2023-07-30T11:33:30;7.82;;;2.60;;
58242;SDS011;50118;53.232;8.252;2023-07-30T11:35:56;5.63;;;2.30;;
58242;SDS011;50118;53.232;8.252;2023-07-30T11:38:23;5.95;;;2.20;;
58242;SDS011;50118;53.232;8.252;2023-07-30T11:40:50;5.80;;;2.45;;
58242;SDS011;50118;53.232;8.252;2023-07-30T11:43:17;6.25;;;2.38;;
58242;SDS011;50118;53.232;8.252;2023-07-30T11:45:44;6.53;;;2.13;;
58242;SDS011;50118;53.232;8.252;2023-07-30T11:48:10;6.47;;;2.30;;
58242;SDS011;50118;53.232;8.252;2023-07-30T11:50:45;6.40;;;2.30;;
58242;SDS011;50118;53.232;8.252;2023-07-30T11:53:11;6.53;;;2.00;;
58242;SDS011;50118;53.232;8.252;2023-07-30T11:55:37;4.30;;;2.00;;
58242;SDS011;50118;53.232;8.252;2023-07-30T11:58:03;4.55;;;2.15;;
58242;SDS011;50118;53.232;8.252;2023-07-30T12:00:31;5.82;;;1.90;;
58242;SDS011;50118;53.232;8.252;2023-07-30T12:02:59;6.38;;;2.10;;
58242;SDS011;50118;53.232;8.252;2023-07-30T12:05:34;5.40;;;2.08;;
58242;SDS011;50118;53.232;8.252;2023-07-30T12:08:01;5.88;;;2.13;;
58242;SDS011;50118;53.232;8.252;2023-07-30T12:10:40;6.97;;;2.30;;
58242;SDS011;50118;53.232;8.252;2023-07-30T12:13:11;5.05;;;2.13;;
58242;SDS011;50118;53.232;8.252;2023-07-30T12:15:44;4.22;;;2.22;;
58242;SDS011;50118;53.232;8.252;2023-07-30T12:18:18;5.20;;;2.05;;
58242;SDS011;50118;53.232;8.252;2023-07-30T12:21:05;5.95;;;1.90;;
58242;SDS011;50118;53.232;8.252;2023-07-30T12:23:37;6.68;;;1.92;;
58242;SDS011;50118;53.232;8.252;2023-07-30T12:26:03;4.93;;;2.05;;
58242;SDS011;50118;53.232;8.252;2023-07-30T12:28:32;6.72;;;1.70;;
58242;SDS011;50118;53.232;8.252;2023-07-30T12:30:59;4.75;;;1.90;;
58242;SDS011;50118;53.232;8.252;2023-07-30T12:33:25;5.45;;;1.90;;
58242;SDS011;50118;53.232;8.252;2023-07-30T12:35:51;6.03;;;2.08;;
58242;SDS011;50118;53.232;8.252;2023-07-30T12:38:26;6.10;;;1.92;;
58242;SDS011;50118;53.232;8.252;2023-07-30T12:40:52;5.85;;;2.22;;
58242;SDS011;50118;53.232;8.252;2023-07-30T12:43:26;5.35;;;2.33;;
58242;SDS011;50118;53.232;8.252;2023-07-30T12:45:54;6.40;;;1.90;;
58242;SDS011;50118;53.232;8.252;2023-07-30T12:48:20;6.43;;;2.13;;
58242;SDS011;50118;53.232;8.252;2023-07-30T12:50:55;5.53;;;2.05;;
58242;SDS011;50118;53.232;8.252;2023-07-30T12:53:20;5.78;;;1.88;;
58242;SDS011;50118;53.232;8.252;2023-07-30T12:55:46;6.10;;;2.05;;
58242;SDS011;50118;53.232;8.252;2023-07-30T12:58:11;5.32;;;2.00;;
58242;SDS011;50118;53.232;8.252;2023-07-30T13:00:36;7.53;;;2.28;;
58242;SDS011;50118;53.232;8.252;2023-07-30T13:03:02;7.10;;;2.22;;
58242;SDS011;50118;53.232;8.252;2023-07-30T13:05:28;5.35;;;2.03;;
58242;SDS011;50118;53.232;8.252;2023-07-30T13:08:00;6.43;;;1.92;;
58242;SDS011;50118;53.232;8.252;2023-07-30T13:10:26;4.65;;;1.90;;
58242;SDS011;50118;53.232;8.252;2023-07-30T13:12:51;5.25;;;2.00;;
58242;SDS011;50118;53.232;8.252;2023-07-30T13:15:17;7.57;;;2.45;;
58242;SDS011;50118;53.232;8.252;2023-07-30T13:17:42;5.03;;;2.00;;
58242;SDS011;50118;53.232;8.252;2023-07-30T13:20:08;5.82;;;1.70;;
58242;SDS011;50118;53.232;8.252;2023-07-30T13:22:34;4.53;;;1.83;;
58242;SDS011;50118;53.232;8.252;2023-07-30T13:24:59;7.32;;;1.95;;
58242;SDS011;50118;53.232;8.252;2023-07-30T13:27:25;4.70;;;1.95;;
58242;SDS011;50118;53.232;8.252;2023-07-30T13:29:50;5.80;;;2.10;;
58242;SDS011;50118;53.232;8.252;2023-07-30T13:32:15;6.57;;;2.00;;
58242;SDS011;50118;53.232;8.252;2023-07-30T13:34:41;5.65;;;1.95;;
58242;SDS011;50118;53.232;8.252;2023-07-30T13:37:06;4.72;;;1.52;;
58242;SDS011;50118;53.232;8.252;2023-07-30T13:39:32;6.97;;;1.98;;
58242;SDS011;50118;53.232;8.252;2023-07-30T13:41:58;5.28;;;1.88;;
58242;SDS011;50118;53.232;8.252;2023-07-30T13:44:23;4.35;;;1.60;;
58242;SDS011;50118;53.232;8.252;2023-07-30T13:46:49;5.00;;;1.80;;
58242;SDS011;50118;53.232;8.252;2023-07-30T13:49:15;5.07;;;1.70;;
58242;SDS011;50118;53.232;8.252;2023-07-30T13:51:41;6.40;;;2.00;;
58242;SDS011;50118;53.232;8.252;2023-07-30T13:54:06;5.22;;;1.80;;
58242;SDS011;50118;53.232;8.252;2023-07-30T13:56:33;7.70;;;2.15;;
58242;SDS011;50118;53.232;8.252;2023-07-30T13:58:59;5.38;;;2.20;;
58242;SDS011;50118;53.232;8.252;2023-07-30T14:01:24;8.15;;;2.83;;
58242;SDS011;50118;53.232;8.252;2023-07-30T14:03:53;7.50;;;2.20;;
58242;SDS011;50118;53.232;8.252;2023-07-30T14:06:19;5.93;;;1.70;;
58242;SDS011;50118;53.232;8.252;2023-07-30T14:08:44;5.15;;;2.08;;
58242;SDS011;50118;53.232;8.252;2023-07-30T14:11:15;5.70;;;2.20;;
58242;SDS011;50118;53.232;8.252;2023-07-30T14:13:41;4.75;;;2.00;;
58242;SDS011;50118;53.232;8.252;2023-07-30T14:16:27;5.47;;;1.80;;
58242;SDS011;50118;53.232;8.252;2023-07-30T14:18:53;4.30;;;1.50;;
58242;SDS011;50118;53.232;8.252;2023-07-30T14:21:24;4.30;;;1.50;;
58242;SDS011;50118;53.232;8.252;2023-07-30T14:23:50;4.20;;;1.70;;
58242;SDS011;50118;53.232;8.252;2023-07-30T14:26:18;4.07;;;1.80;;
58242;SDS011;50118;53.232;8.252;2023-07-30T14:28:53;4.22;;;1.52;;
58242;SDS011;50118;53.232;8.252;2023-07-30T14:31:18;3.45;;;1.40;;
58242;SDS011;50118;53.232;8.252;2023-07-30T14:33:43;3.85;;;1.33;;
58242;SDS011;50118;53.232;8.252;2023-07-30T14:36:09;3.97;;;1.40;;
58242;SDS011;50118;53.232;8.252;2023-07-30T14:38:36;4.22;;;1.38;;
58242;SDS011;50118;53.232;8.252;2023-07-30T14:41:01;4.55;;;1.30;;